Terminal Aerodrome Forecast
Issued by NWS

Home | Current Version | Previous Version | Text Only | Print | Product List | Glossary On
Versions: 1 2 3 4 5 6 7 8 9 10 11 12 13 14 15
000
FTUS43 KDMX 210520
TAFOTM
TAF
KOTM 210520Z 2106/2206 17014KT P6SM SCT250
     FM211500 16015G25KT P6SM SCT030 BKN080
     FM212100 18014G22KT P6SM BKN030
     FM220100 19010KT P6SM SHRA VCTS OVC025CB=

USA.gov is the U.S. government's official web portal to all federal, state and local government web resources and services.